EZY505T EGKK-LPMA
Flight info
| Callsign | EZY505T |
|---|---|
| Flight time | N/A |
| Altitude | 33000 |
| Route | NOVMA L620 SAM M195 LORKU DCT BALDA/N0451F350 DCT ABUPI DCT BUSEN DCT GALPA DCT RAKUN |
| Aircraft | A320/M-SDE3FGHIRWY/LB1 |
Departure
| Time | 2026-04-15 14:24 |
|---|---|
| Airport | London Gatwick Airport (EGKK) |
Arrival
| Time | N/A |
|---|---|
| Airport | Cristiano Ronaldo International Airport (LPMA) |
| Time | Latitude | Longitude | Altitude | Speed | Heading |
|---|---|---|---|---|---|
| 2026-04-15 13:39 | 51.16276 | -0.18089 | 203 ft | 0 kts | 78° |
| 2026-04-15 13:54 | 51.16276 | -0.18090 | 203 ft | 0 kts | 78° |
| 2026-04-15 14:06 | 51.16275 | -0.18094 | 202 ft | 3 kts | 78° |
| 2026-04-15 14:06 | 51.16270 | -0.18135 | 208 ft | 4 kts | 82° |
| 2026-04-15 14:06 | 51.16268 | -0.18178 | 212 ft | 4 kts | 91° |
| 2026-04-15 14:06 | 51.16272 | -0.18218 | 207 ft | 4 kts | 128° |
| 2026-04-15 14:07 | 51.16281 | -0.18232 | 204 ft | 1 kts | 168° |
| 2026-04-15 14:09 | 51.16272 | -0.18228 | 203 ft | 3 kts | 168° |
| 2026-04-15 14:09 | 51.16247 | -0.18220 | 203 ft | 5 kts | 168° |
| 2026-04-15 14:09 | 51.16202 | -0.18204 | 209 ft | 9 kts | 167° |
| 2026-04-15 14:10 | 51.16128 | -0.18177 | 209 ft | 13 kts | 167° |
| 2026-04-15 14:10 | 51.16030 | -0.18143 | 213 ft | 16 kts | 168° |
| 2026-04-15 14:10 | 51.15914 | -0.18104 | 203 ft | 14 kts | 166° |
| 2026-04-15 14:10 | 51.15843 | -0.18079 | 209 ft | 10 kts | 167° |
| 2026-04-15 14:11 | 51.15776 | -0.18056 | 203 ft | 5 kts | 167° |
| 2026-04-15 14:11 | 51.15745 | -0.18044 | 214 ft | 5 kts | 167° |
| 2026-04-15 14:11 | 51.15737 | -0.18042 | 213 ft | 0 kts | 167° |
| 2026-04-15 14:12 | 51.15727 | -0.18038 | 207 ft | 3 kts | 167° |
| 2026-04-15 14:12 | 51.15706 | -0.18021 | 212 ft | 3 kts | 128° |
| 2026-04-15 14:12 | 51.15704 | -0.18010 | 214 ft | 0 kts | 114° |
| 2026-04-15 14:12 | 51.15700 | -0.17988 | 206 ft | 4 kts | 103° |
| 2026-04-15 14:13 | 51.15703 | -0.17919 | 208 ft | 8 kts | 78° |
| 2026-04-15 14:13 | 51.15723 | -0.17807 | 210 ft | 12 kts | 81° |
| 2026-04-15 14:13 | 51.15730 | -0.17738 | 203 ft | 0 kts | 79° |
| 2026-04-15 14:14 | 51.15730 | -0.17736 | 203 ft | 1 kts | 79° |
| 2026-04-15 14:14 | 51.15732 | -0.17721 | 203 ft | 2 kts | 79° |
| 2026-04-15 14:14 | 51.15733 | -0.17714 | 203 ft | 0 kts | 79° |
| 2026-04-15 14:16 | 51.15737 | -0.17681 | 212 ft | 6 kts | 79° |
| 2026-04-15 14:16 | 51.15747 | -0.17597 | 203 ft | 10 kts | 75° |
| 2026-04-15 14:17 | 51.15724 | -0.17502 | 207 ft | 10 kts | 156° |
| 2026-04-15 14:17 | 51.15649 | -0.17475 | 210 ft | 12 kts | 169° |
| 2026-04-15 14:17 | 51.15566 | -0.17445 | 208 ft | 13 kts | 167° |
| 2026-04-15 14:17 | 51.15473 | -0.17413 | 203 ft | 14 kts | 168° |
| 2026-04-15 14:18 | 51.15371 | -0.17377 | 214 ft | 16 kts | 167° |
| 2026-04-15 14:18 | 51.15263 | -0.17332 | 214 ft | 16 kts | 153° |
| 2026-04-15 14:18 | 51.15187 | -0.17234 | 209 ft | 12 kts | 120° |
| 2026-04-15 14:18 | 51.15185 | -0.17162 | 208 ft | 5 kts | 82° |
| 2026-04-15 14:19 | 51.15191 | -0.17108 | 213 ft | 6 kts | 80° |
| 2026-04-15 14:19 | 51.15198 | -0.17039 | 203 ft | 6 kts | 80° |
| 2026-04-15 14:19 | 51.15206 | -0.16974 | 208 ft | 6 kts | 78° |
| 2026-04-15 14:19 | 51.15215 | -0.16913 | 203 ft | 6 kts | 75° |
| 2026-04-15 14:20 | 51.15220 | -0.16866 | 207 ft | 2 kts | 91° |
| 2026-04-15 14:20 | 51.15220 | -0.16861 | 207 ft | 0 kts | 95° |
| 2026-04-15 14:21 | 51.15220 | -0.16859 | 206 ft | 1 kts | 96° |
| 2026-04-15 14:22 | 51.15213 | -0.16835 | 206 ft | 3 kts | 117° |
| 2026-04-15 14:22 | 51.15195 | -0.16803 | 207 ft | 5 kts | 147° |
| 2026-04-15 14:22 | 51.15124 | -0.16831 | 208 ft | 13 kts | 230° |
| 2026-04-15 14:22 | 51.15106 | -0.16911 | 209 ft | 0 kts | 257° |
| 2026-04-15 14:23 | 51.15105 | -0.16919 | 208 ft | 1 kts | 257° |
| 2026-04-15 14:23 | 51.15088 | -0.17041 | 207 ft | 38 kts | 257° |
| 2026-04-15 14:23 | 51.14984 | -0.17802 | 212 ft | 101 kts | 258° |
| 2026-04-15 14:23 | 51.14794 | -0.19170 | 215 ft | 150 kts | 253° |
| 2026-04-15 14:24 | 51.14563 | -0.20934 | 506 ft | 169 kts | 253° |
| 2026-04-15 14:24 | 51.14331 | -0.22809 | 1148 ft | 174 kts | 253° |
| 2026-04-15 14:24 | 51.14102 | -0.24685 | 1905 ft | 171 kts | 252° |
| 2026-04-15 14:24 | 51.13828 | -0.26624 | 2210 ft | 189 kts | 252° |
| 2026-04-15 14:25 | 51.13509 | -0.28753 | 2535 ft | 207 kts | 252° |
| 2026-04-15 14:25 | 51.13159 | -0.31101 | 2998 ft | 227 kts | 253° |
| 2026-04-15 14:25 | 51.12800 | -0.33576 | 3783 ft | 231 kts | 253° |
| 2026-04-15 14:25 | 51.12448 | -0.36073 | 4632 ft | 235 kts | 253° |
| 2026-04-15 14:26 | 51.12093 | -0.38628 | 5474 ft | 237 kts | 253° |
| 2026-04-15 14:26 | 51.11733 | -0.41220 | 6280 ft | 241 kts | 253° |
| 2026-04-15 14:26 | 51.11241 | -0.43763 | 7065 ft | 241 kts | 242° |
| 2026-04-15 14:26 | 51.10500 | -0.46160 | 7816 ft | 243 kts | 241° |
| 2026-04-15 14:27 | 51.09742 | -0.48589 | 8604 ft | 245 kts | 240° |
| 2026-04-15 14:27 | 51.08977 | -0.51029 | 9393 ft | 248 kts | 240° |
| 2026-04-15 14:27 | 51.08203 | -0.53497 | 10169 ft | 251 kts | 240° |
| 2026-04-15 14:27 | 51.07420 | -0.55997 | 10880 ft | 253 kts | 240° |
| 2026-04-15 14:28 | 51.06636 | -0.58511 | 11598 ft | 255 kts | 240° |
| 2026-04-15 14:28 | 51.05854 | -0.61017 | 12305 ft | 257 kts | 240° |
| 2026-04-15 14:28 | 51.05225 | -0.63698 | 12991 ft | 264 kts | 252° |
| 2026-04-15 14:28 | 51.04843 | -0.66569 | 13702 ft | 267 kts | 252° |
| 2026-04-15 14:29 | 51.04457 | -0.69464 | 14333 ft | 269 kts | 252° |
| 2026-04-15 14:29 | 51.04066 | -0.72389 | 14932 ft | 272 kts | 252° |
| 2026-04-15 14:29 | 51.03668 | -0.75354 | 15497 ft | 276 kts | 252° |
| 2026-04-15 14:29 | 51.03251 | -0.78411 | 15726 ft | 292 kts | 252° |
| 2026-04-15 14:30 | 51.02800 | -0.81672 | 15866 ft | 312 kts | 252° |
| 2026-04-15 14:30 | 51.02321 | -0.85134 | 16043 ft | 330 kts | 252° |
| 2026-04-15 14:30 | 51.01829 | -0.88739 | 16578 ft | 336 kts | 252° |
| 2026-04-15 14:30 | 51.01337 | -0.92409 | 17167 ft | 340 kts | 252° |
| 2026-04-15 14:31 | 51.00840 | -0.96097 | 17731 ft | 344 kts | 252° |
| 2026-04-15 14:31 | 51.00332 | -0.99832 | 18308 ft | 347 kts | 252° |
| 2026-04-15 14:31 | 50.99817 | -1.03593 | 18834 ft | 351 kts | 252° |
| 2026-04-15 14:31 | 50.99295 | -1.07386 | 19344 ft | 352 kts | 251° |
| 2026-04-15 14:32 | 50.98773 | -1.11182 | 19821 ft | 354 kts | 251° |
| 2026-04-15 14:32 | 50.98244 | -1.15018 | 20309 ft | 355 kts | 251° |
| 2026-04-15 14:32 | 50.97711 | -1.18866 | 20787 ft | 357 kts | 250° |
| 2026-04-15 14:32 | 50.97175 | -1.22726 | 21259 ft | 359 kts | 250° |
| 2026-04-15 14:33 | 50.96633 | -1.26607 | 21722 ft | 361 kts | 249° |
| 2026-04-15 14:33 | 50.95892 | -1.30374 | 22180 ft | 354 kts | 239° |
| 2026-04-15 14:33 | 50.94711 | -1.33751 | 22639 ft | 348 kts | 229° |
| 2026-04-15 14:33 | 50.93166 | -1.36610 | 23088 ft | 344 kts | 219° |
| 2026-04-15 14:34 | 50.91294 | -1.38941 | 23543 ft | 342 kts | 211° |
| 2026-04-15 14:34 | 50.89299 | -1.41011 | 23946 ft | 344 kts | 211° |
| 2026-04-15 14:34 | 50.87293 | -1.43094 | 24330 ft | 345 kts | 211° |
| 2026-04-15 14:34 | 50.85276 | -1.45187 | 24688 ft | 347 kts | 211° |
| 2026-04-15 14:35 | 50.83250 | -1.47288 | 25024 ft | 349 kts | 211° |
| 2026-04-15 14:35 | 50.81212 | -1.49402 | 25350 ft | 351 kts | 211° |
| 2026-04-15 14:35 | 50.79164 | -1.51521 | 25673 ft | 353 kts | 211° |
| 2026-04-15 14:35 | 50.77101 | -1.53653 | 26003 ft | 355 kts | 211° |
| 2026-04-15 14:36 | 50.75032 | -1.55793 | 26339 ft | 357 kts | 211° |
| 2026-04-15 14:36 | 50.72950 | -1.57948 | 26663 ft | 358 kts | 211° |
| 2026-04-15 14:36 | 50.70857 | -1.60112 | 26984 ft | 360 kts | 211° |
| 2026-04-15 14:36 | 50.68753 | -1.62282 | 27294 ft | 363 kts | 211° |
| 2026-04-15 14:37 | 50.67353 | -1.63724 | 27488 ft | 364 kts | 211° |
| 2026-04-15 14:37 | 50.65220 | -1.65920 | 27787 ft | 366 kts | 211° |
| 2026-04-15 14:37 | 50.62382 | -1.68836 | 28180 ft | 368 kts | 211° |
| 2026-04-15 14:37 | 50.60229 | -1.71045 | 28478 ft | 370 kts | 212° |
| 2026-04-15 14:38 | 50.58763 | -1.72547 | 28669 ft | 372 kts | 212° |
| 2026-04-15 14:38 | 50.56591 | -1.74771 | 28935 ft | 374 kts | 212° |
| 2026-04-15 14:38 | 50.54404 | -1.77006 | 29201 ft | 375 kts | 212° |
| 2026-04-15 14:38 | 50.52209 | -1.79250 | 29445 ft | 377 kts | 212° |
| 2026-04-15 14:39 | 50.50005 | -1.81506 | 29706 ft | 379 kts | 212° |
| 2026-04-15 14:39 | 50.47789 | -1.83769 | 29945 ft | 381 kts | 212° |
| 2026-04-15 14:39 | 50.45587 | -1.86011 | 30178 ft | 383 kts | 212° |
| 2026-04-15 14:39 | 50.43349 | -1.88285 | 30431 ft | 383 kts | 212° |
| 2026-04-15 14:40 | 50.41117 | -1.90553 | 30727 ft | 382 kts | 212° |
| 2026-04-15 14:40 | 50.38887 | -1.92817 | 31007 ft | 381 kts | 212° |
| 2026-04-15 14:40 | 50.36661 | -1.95076 | 31299 ft | 381 kts | 212° |
| 2026-04-15 14:40 | 50.34439 | -1.97327 | 31582 ft | 381 kts | 212° |
| 2026-04-15 14:41 | 50.32215 | -1.99576 | 31862 ft | 380 kts | 212° |
| 2026-04-15 14:41 | 50.29992 | -2.01824 | 32145 ft | 380 kts | 213° |
| 2026-04-15 14:41 | 50.27773 | -2.04066 | 32417 ft | 379 kts | 213° |
| 2026-04-15 14:41 | 50.25581 | -2.06277 | 32694 ft | 379 kts | 213° |
| 2026-04-15 14:42 | 50.23354 | -2.08513 | 32972 ft | 379 kts | 213° |
| 2026-04-15 14:42 | 50.21125 | -2.10707 | 33242 ft | 378 kts | 212° |
| 2026-04-15 14:42 | 50.18888 | -2.12877 | 33513 ft | 378 kts | 212° |
| 2026-04-15 14:42 | 50.16653 | -2.15035 | 33785 ft | 378 kts | 212° |
| 2026-04-15 14:43 | 50.14422 | -2.17196 | 34050 ft | 377 kts | 212° |
| 2026-04-15 14:43 | 50.12189 | -2.19360 | 34270 ft | 378 kts | 212° |
| 2026-04-15 14:43 | 50.09959 | -2.21518 | 34461 ft | 378 kts | 213° |
| 2026-04-15 14:43 | 50.07721 | -2.23684 | 34638 ft | 379 kts | 213° |
| 2026-04-15 14:44 | 50.05479 | -2.25857 | 34808 ft | 380 kts | 213° |
| 2026-04-15 14:44 | 50.03229 | -2.28038 | 34982 ft | 381 kts | 213° |
| 2026-04-15 14:44 | 50.00977 | -2.30219 | 35052 ft | 381 kts | 213° |
| 2026-04-15 14:45 | 49.96463 | -2.34576 | 35068 ft | 381 kts | 213° |
| 2026-04-15 14:45 | 49.91790 | -2.38478 | 35074 ft | 383 kts | 206° |
| 2026-04-15 14:46 | 49.86882 | -2.41747 | 35073 ft | 384 kts | 206° |
| 2026-04-15 14:46 | 49.81969 | -2.45006 | 35082 ft | 384 kts | 206° |
| 2026-04-15 14:47 | 49.77058 | -2.48258 | 35078 ft | 384 kts | 206° |
| 2026-04-15 14:47 | 49.72170 | -2.51481 | 35069 ft | 384 kts | 206° |
| 2026-04-15 14:48 | 49.67258 | -2.54720 | 35064 ft | 384 kts | 206° |
| 2026-04-15 14:48 | 49.62343 | -2.57966 | 35060 ft | 384 kts | 206° |
| 2026-04-15 14:49 | 49.57423 | -2.61203 | 35058 ft | 384 kts | 207° |
| 2026-04-15 14:49 | 49.52494 | -2.64438 | 35059 ft | 385 kts | 207° |
| 2026-04-15 14:50 | 49.47560 | -2.67662 | 35060 ft | 385 kts | 207° |
| 2026-04-15 14:50 | 49.42627 | -2.70883 | 35060 ft | 386 kts | 207° |
| 2026-04-15 14:51 | 49.37680 | -2.74102 | 35058 ft | 386 kts | 207° |
| 2026-04-15 14:51 | 49.32724 | -2.77308 | 35063 ft | 387 kts | 207° |
| 2026-04-15 14:52 | 49.27793 | -2.80503 | 35065 ft | 387 kts | 207° |
| 2026-04-15 14:52 | 49.22836 | -2.83712 | 35068 ft | 387 kts | 207° |
| 2026-04-15 14:53 | 49.17860 | -2.86937 | 35066 ft | 388 kts | 207° |
| 2026-04-15 14:53 | 49.12890 | -2.90147 | 35067 ft | 388 kts | 207° |
| 2026-04-15 14:54 | 49.07906 | -2.93348 | 35071 ft | 388 kts | 207° |
| 2026-04-15 14:54 | 49.02946 | -2.96520 | 35068 ft | 389 kts | 207° |
| 2026-04-15 14:55 | 48.97945 | -2.99717 | 35067 ft | 389 kts | 207° |
| 2026-04-15 14:55 | 48.92952 | -3.02901 | 35071 ft | 389 kts | 208° |
| 2026-04-15 14:56 | 48.87941 | -3.06090 | 35076 ft | 390 kts | 208° |
| 2026-04-15 14:56 | 48.82935 | -3.09281 | 35082 ft | 390 kts | 208° |
| 2026-04-15 14:57 | 48.77959 | -3.12443 | 35087 ft | 391 kts | 208° |
| 2026-04-15 14:57 | 48.72934 | -3.15622 | 35093 ft | 391 kts | 208° |
| 2026-04-15 14:58 | 48.67911 | -3.18795 | 35093 ft | 391 kts | 208° |
| 2026-04-15 14:58 | 48.62878 | -3.21969 | 35094 ft | 391 kts | 208° |
| 2026-04-15 14:59 | 48.57849 | -3.25130 | 35095 ft | 392 kts | 208° |
| 2026-04-15 14:59 | 48.52809 | -3.28293 | 35095 ft | 392 kts | 208° |
| 2026-04-15 15:00 | 48.47771 | -3.31457 | 35093 ft | 392 kts | 208° |
| 2026-04-15 15:00 | 48.44916 | -3.33244 | 35093 ft | 392 kts | 208° |
| 2026-04-15 15:01 | 48.40794 | -3.35811 | 35096 ft | 392 kts | 208° |
| 2026-04-15 15:02 | 48.35752 | -3.38952 | 35094 ft | 392 kts | 208° |
| 2026-04-15 15:02 | 48.30708 | -3.42089 | 35100 ft | 392 kts | 209° |
| 2026-04-15 15:03 | 48.25696 | -3.45199 | 35117 ft | 392 kts | 209° |
| 2026-04-15 15:03 | 48.20640 | -3.48326 | 35116 ft | 393 kts | 209° |
| 2026-04-15 15:04 | 48.15584 | -3.51453 | 35127 ft | 393 kts | 209° |
| 2026-04-15 15:04 | 48.10512 | -3.54583 | 35133 ft | 394 kts | 209° |
| 2026-04-15 15:05 | 48.05441 | -3.57707 | 35134 ft | 394 kts | 209° |
| 2026-04-15 15:05 | 48.00362 | -3.60823 | 35143 ft | 395 kts | 209° |
| 2026-04-15 15:06 | 47.92734 | -3.65485 | 35144 ft | 395 kts | 209° |
| 2026-04-15 15:06 | 47.87647 | -3.68597 | 35150 ft | 395 kts | 209° |
| 2026-04-15 15:07 | 47.82589 | -3.71679 | 35155 ft | 395 kts | 209° |
| 2026-04-15 15:07 | 47.77501 | -3.74773 | 35148 ft | 395 kts | 209° |
| 2026-04-15 15:08 | 47.72410 | -3.77858 | 35148 ft | 395 kts | 209° |
| 2026-04-15 15:08 | 47.67313 | -3.80934 | 35147 ft | 395 kts | 209° |
| 2026-04-15 15:09 | 47.62223 | -3.84009 | 35145 ft | 395 kts | 209° |
| 2026-04-15 15:09 | 47.57127 | -3.87088 | 35146 ft | 395 kts | 209° |
| 2026-04-15 15:10 | 47.52028 | -3.90153 | 35144 ft | 396 kts | 209° |
| 2026-04-15 15:10 | 47.46926 | -3.93216 | 35142 ft | 396 kts | 209° |
| 2026-04-15 15:11 | 47.41827 | -3.96282 | 35141 ft | 396 kts | 209° |
| 2026-04-15 15:11 | 47.36715 | -3.99340 | 35144 ft | 396 kts | 209° |
| 2026-04-15 15:12 | 47.31603 | -4.02376 | 35146 ft | 397 kts | 209° |
| 2026-04-15 15:12 | 47.26464 | -4.05425 | 35155 ft | 397 kts | 209° |
| 2026-04-15 15:13 | 47.21338 | -4.08470 | 35146 ft | 398 kts | 209° |
| 2026-04-15 15:13 | 47.16208 | -4.11510 | 35149 ft | 398 kts | 209° |
| 2026-04-15 15:14 | 47.11066 | -4.14557 | 35150 ft | 398 kts | 209° |
| 2026-04-15 15:14 | 47.05928 | -4.17594 | 35161 ft | 398 kts | 209° |
| 2026-04-15 15:15 | 47.00787 | -4.20624 | 35165 ft | 399 kts | 208° |
| 2026-04-15 15:15 | 46.95630 | -4.23657 | 35168 ft | 399 kts | 208° |
| 2026-04-15 15:16 | 46.90471 | -4.26681 | 35165 ft | 400 kts | 208° |
| 2026-04-15 15:16 | 46.85304 | -4.29703 | 35168 ft | 400 kts | 208° |
| 2026-04-15 15:17 | 46.80131 | -4.32723 | 35170 ft | 401 kts | 208° |
| 2026-04-15 15:17 | 46.74953 | -4.35740 | 35167 ft | 401 kts | 208° |
| 2026-04-15 15:18 | 46.69769 | -4.38757 | 35173 ft | 401 kts | 208° |
| 2026-04-15 15:18 | 46.64579 | -4.41776 | 35174 ft | 402 kts | 208° |
| 2026-04-15 15:19 | 46.59384 | -4.44789 | 35178 ft | 402 kts | 208° |
| 2026-04-15 15:19 | 46.54184 | -4.47789 | 35179 ft | 402 kts | 208° |
| 2026-04-15 15:20 | 46.49865 | -4.50287 | 35182 ft | 402 kts | 208° |
| 2026-04-15 15:20 | 46.44654 | -4.53286 | 35182 ft | 403 kts | 208° |
| 2026-04-15 15:21 | 46.39436 | -4.56280 | 35178 ft | 403 kts | 208° |
| 2026-04-15 15:21 | 46.34214 | -4.59269 | 35179 ft | 404 kts | 208° |
| 2026-04-15 15:22 | 46.28987 | -4.62258 | 35182 ft | 404 kts | 208° |
| 2026-04-15 15:22 | 46.23756 | -4.65256 | 35183 ft | 404 kts | 208° |
| 2026-04-15 15:23 | 46.18519 | -4.68245 | 35182 ft | 405 kts | 208° |
| 2026-04-15 15:23 | 46.13281 | -4.71234 | 35188 ft | 405 kts | 208° |
| 2026-04-15 15:24 | 46.08036 | -4.74211 | 35187 ft | 406 kts | 208° |
| 2026-04-15 15:24 | 46.02778 | -4.77182 | 35189 ft | 406 kts | 208° |
| 2026-04-15 15:25 | 45.97511 | -4.80158 | 35204 ft | 406 kts | 208° |
| 2026-04-15 15:25 | 45.92250 | -4.83127 | 35194 ft | 406 kts | 208° |
| 2026-04-15 15:26 | 45.86997 | -4.86095 | 35196 ft | 406 kts | 208° |
| 2026-04-15 15:26 | 45.81769 | -4.89028 | 35196 ft | 406 kts | 207° |
| 2026-04-15 15:27 | 45.76499 | -4.91976 | 35193 ft | 407 kts | 207° |
| 2026-04-15 15:27 | 45.71226 | -4.94926 | 35195 ft | 407 kts | 207° |
| 2026-04-15 15:28 | 45.65953 | -4.97876 | 35198 ft | 407 kts | 207° |
| 2026-04-15 15:28 | 45.60674 | -5.00820 | 35204 ft | 407 kts | 207° |
| 2026-04-15 15:29 | 45.55389 | -5.03759 | 35204 ft | 408 kts | 207° |
| 2026-04-15 15:29 | 45.50108 | -5.06691 | 35204 ft | 407 kts | 207° |
| 2026-04-15 15:30 | 45.44817 | -5.09618 | 35208 ft | 408 kts | 207° |
| 2026-04-15 15:30 | 45.39512 | -5.12543 | 35207 ft | 408 kts | 207° |
| 2026-04-15 15:31 | 45.34218 | -5.15465 | 35208 ft | 408 kts | 207° |
| 2026-04-15 15:31 | 45.28920 | -5.18390 | 35209 ft | 408 kts | 207° |
| 2026-04-15 15:32 | 45.23615 | -5.21309 | 35210 ft | 409 kts | 207° |
| 2026-04-15 15:32 | 45.18311 | -5.24214 | 35217 ft | 409 kts | 207° |
| 2026-04-15 15:33 | 45.12999 | -5.27116 | 35219 ft | 410 kts | 207° |
| 2026-04-15 15:33 | 45.07678 | -5.30023 | 35223 ft | 410 kts | 207° |
| 2026-04-15 15:34 | 45.02357 | -5.32929 | 35215 ft | 410 kts | 207° |
| 2026-04-15 15:34 | 44.97031 | -5.35829 | 35227 ft | 410 kts | 207° |
| 2026-04-15 15:35 | 44.91699 | -5.38728 | 35227 ft | 410 kts | 207° |
| 2026-04-15 15:35 | 44.86367 | -5.41622 | 35224 ft | 410 kts | 207° |
| 2026-04-15 15:36 | 44.81037 | -5.44503 | 35225 ft | 411 kts | 207° |
| 2026-04-15 15:36 | 44.75696 | -5.47385 | 35223 ft | 411 kts | 207° |
| 2026-04-15 15:37 | 44.70352 | -5.50265 | 35225 ft | 411 kts | 207° |
| 2026-04-15 15:37 | 44.65018 | -5.53134 | 35223 ft | 410 kts | 207° |
| 2026-04-15 15:38 | 44.59723 | -5.55998 | 35226 ft | 410 kts | 208° |
| 2026-04-15 15:38 | 44.54496 | -5.59165 | 35231 ft | 408 kts | 211° |
| 2026-04-15 15:39 | 44.49331 | -5.62464 | 35232 ft | 408 kts | 211° |
| 2026-04-15 15:39 | 44.44141 | -5.65726 | 35235 ft | 409 kts | 210° |
| 2026-04-15 15:40 | 44.38933 | -5.68933 | 35231 ft | 409 kts | 210° |
| 2026-04-15 15:40 | 44.33710 | -5.72128 | 35237 ft | 409 kts | 210° |
| 2026-04-15 15:41 | 44.28490 | -5.75313 | 35229 ft | 409 kts | 210° |
| 2026-04-15 15:41 | 44.23277 | -5.78503 | 35227 ft | 409 kts | 210° |
| 2026-04-15 15:42 | 44.18069 | -5.81696 | 35228 ft | 409 kts | 210° |
| 2026-04-15 15:42 | 44.12845 | -5.84881 | 35227 ft | 410 kts | 210° |
| 2026-04-15 15:43 | 44.07620 | -5.88054 | 35230 ft | 410 kts | 210° |
| 2026-04-15 15:43 | 44.02394 | -5.91220 | 35232 ft | 410 kts | 210° |
| 2026-04-15 15:44 | 43.97166 | -5.94389 | 35229 ft | 410 kts | 210° |
| 2026-04-15 15:44 | 43.91946 | -5.97555 | 35224 ft | 410 kts | 210° |
| 2026-04-15 15:45 | 43.86716 | -6.00721 | 35225 ft | 410 kts | 210° |
| 2026-04-15 15:45 | 43.81486 | -6.03862 | 35224 ft | 410 kts | 210° |
| 2026-04-15 15:46 | 43.76258 | -6.06995 | 35221 ft | 409 kts | 210° |
| 2026-04-15 15:46 | 43.71037 | -6.10134 | 35220 ft | 409 kts | 210° |
| 2026-04-15 15:47 | 43.65809 | -6.13274 | 35222 ft | 409 kts | 210° |
| 2026-04-15 15:47 | 43.60583 | -6.16396 | 35223 ft | 409 kts | 210° |
| 2026-04-15 15:48 | 43.55352 | -6.19515 | 35224 ft | 409 kts | 210° |
| 2026-04-15 15:48 | 43.50121 | -6.22633 | 35218 ft | 410 kts | 210° |
| 2026-04-15 15:49 | 43.44881 | -6.25751 | 35213 ft | 410 kts | 210° |
| 2026-04-15 15:49 | 43.39646 | -6.28858 | 35211 ft | 410 kts | 210° |
| 2026-04-15 15:50 | 43.34401 | -6.31962 | 35205 ft | 410 kts | 210° |
| 2026-04-15 15:50 | 43.29158 | -6.35057 | 35199 ft | 410 kts | 210° |
| 2026-04-15 15:51 | 43.25683 | -6.37108 | 35195 ft | 410 kts | 210° |
| 2026-04-15 15:51 | 43.18666 | -6.41245 | 35201 ft | 410 kts | 210° |
| 2026-04-15 15:52 | 43.13412 | -6.44333 | 35199 ft | 411 kts | 210° |
| 2026-04-15 15:52 | 43.08160 | -6.47415 | 35183 ft | 410 kts | 210° |
| 2026-04-15 15:53 | 43.02912 | -6.50490 | 35198 ft | 410 kts | 210° |
| 2026-04-15 15:53 | 42.97660 | -6.53558 | 35204 ft | 411 kts | 210° |
| 2026-04-15 15:54 | 42.92436 | -6.56609 | 35191 ft | 410 kts | 210° |
| 2026-04-15 15:54 | 42.87193 | -6.59667 | 35193 ft | 410 kts | 210° |
| 2026-04-15 15:55 | 42.81914 | -6.62731 | 35187 ft | 410 kts | 210° |
| 2026-04-15 15:55 | 42.76695 | -6.65755 | 35182 ft | 410 kts | 210° |
| 2026-04-15 15:56 | 42.71451 | -6.68793 | 35177 ft | 410 kts | 210° |
| 2026-04-15 15:56 | 42.66188 | -6.71828 | 35180 ft | 410 kts | 210° |
| 2026-04-15 15:57 | 42.60939 | -6.74850 | 35174 ft | 410 kts | 210° |
| 2026-04-15 15:57 | 42.55686 | -6.77879 | 35184 ft | 410 kts | 210° |
| 2026-04-15 15:58 | 42.50432 | -6.80905 | 35184 ft | 410 kts | 210° |
| 2026-04-15 15:58 | 42.45179 | -6.83926 | 35185 ft | 410 kts | 210° |
| 2026-04-15 15:59 | 42.39955 | -6.86919 | 35181 ft | 410 kts | 210° |
| 2026-04-15 15:59 | 42.35552 | -6.89436 | 35181 ft | 410 kts | 210° |
| 2026-04-15 16:00 | 42.30292 | -6.92437 | 35180 ft | 410 kts | 210° |
| 2026-04-15 16:00 | 42.24170 | -6.95920 | 35178 ft | 411 kts | 210° |
| 2026-04-15 16:01 | 42.19756 | -6.98432 | 35186 ft | 411 kts | 210° |
| 2026-04-15 16:01 | 42.14480 | -7.01429 | 35184 ft | 411 kts | 210° |
| 2026-04-15 16:02 | 42.09232 | -7.04398 | 35197 ft | 412 kts | 210° |
| 2026-04-15 16:02 | 42.03953 | -7.07391 | 35212 ft | 411 kts | 210° |
| 2026-04-15 16:03 | 41.98675 | -7.10380 | 35207 ft | 411 kts | 209° |
| 2026-04-15 16:03 | 41.93395 | -7.13358 | 35204 ft | 412 kts | 209° |
| 2026-04-15 16:04 | 41.88108 | -7.16325 | 35193 ft | 412 kts | 209° |
| 2026-04-15 16:04 | 41.82820 | -7.19287 | 35196 ft | 412 kts | 209° |
| 2026-04-15 16:05 | 41.77538 | -7.22252 | 35186 ft | 411 kts | 209° |
| 2026-04-15 16:05 | 41.72599 | -7.25897 | 35188 ft | 402 kts | 220° |
| 2026-04-15 16:06 | 41.67975 | -7.30130 | 35184 ft | 403 kts | 220° |
| 2026-04-15 16:06 | 41.63330 | -7.34357 | 35190 ft | 404 kts | 220° |
| 2026-04-15 16:07 | 41.58685 | -7.38583 | 35189 ft | 404 kts | 220° |
| 2026-04-15 16:08 | 41.51714 | -7.44905 | 35196 ft | 404 kts | 220° |
| 2026-04-15 16:08 | 41.47087 | -7.49089 | 35204 ft | 404 kts | 220° |
| 2026-04-15 16:09 | 41.42422 | -7.53301 | 35208 ft | 404 kts | 220° |
| 2026-04-15 16:09 | 41.37758 | -7.57501 | 35209 ft | 403 kts | 220° |
| 2026-04-15 16:10 | 41.33135 | -7.61665 | 35216 ft | 403 kts | 220° |
| 2026-04-15 16:10 | 41.28478 | -7.65853 | 35223 ft | 404 kts | 220° |
| 2026-04-15 16:11 | 41.23806 | -7.70037 | 35224 ft | 404 kts | 220° |
| 2026-04-15 16:11 | 41.19138 | -7.74216 | 35230 ft | 404 kts | 220° |
| 2026-04-15 16:12 | 41.14466 | -7.78397 | 35229 ft | 405 kts | 220° |
| 2026-04-15 16:12 | 41.09821 | -7.82538 | 35232 ft | 404 kts | 220° |
| 2026-04-15 16:13 | 41.05153 | -7.86699 | 35230 ft | 404 kts | 220° |
| 2026-04-15 16:13 | 41.00485 | -7.90851 | 35229 ft | 405 kts | 220° |
| 2026-04-15 16:14 | 40.95806 | -7.94998 | 35233 ft | 405 kts | 219° |
| 2026-04-15 16:14 | 40.91123 | -7.99143 | 35234 ft | 404 kts | 220° |
| 2026-04-15 16:15 | 40.86449 | -8.03282 | 35235 ft | 404 kts | 220° |
| 2026-04-15 16:15 | 40.81773 | -8.07415 | 35235 ft | 404 kts | 219° |
| 2026-04-15 16:16 | 40.77096 | -8.11544 | 35235 ft | 405 kts | 219° |
| 2026-04-15 16:16 | 40.72409 | -8.15668 | 35237 ft | 405 kts | 219° |
| 2026-04-15 16:17 | 40.67719 | -8.19782 | 35238 ft | 405 kts | 219° |
| 2026-04-15 16:17 | 40.63050 | -8.23872 | 35239 ft | 405 kts | 219° |
| 2026-04-15 16:18 | 40.58353 | -8.27978 | 35243 ft | 406 kts | 219° |
| 2026-04-15 16:18 | 40.53653 | -8.32090 | 35238 ft | 406 kts | 219° |
| 2026-04-15 16:19 | 40.44342 | -8.40207 | 35243 ft | 407 kts | 219° |
| 2026-04-15 16:20 | 40.39622 | -8.44322 | 35241 ft | 407 kts | 219° |
| 2026-04-15 16:20 | 40.34885 | -8.48429 | 35254 ft | 408 kts | 219° |
| 2026-04-15 16:21 | 40.30144 | -8.52528 | 35246 ft | 408 kts | 219° |
| 2026-04-15 16:21 | 40.25412 | -8.56659 | 35250 ft | 407 kts | 223° |
| 2026-04-15 16:22 | 40.21263 | -8.61587 | 35244 ft | 403 kts | 227° |
| 2026-04-15 16:22 | 40.17156 | -8.66593 | 35245 ft | 404 kts | 227° |
| 2026-04-15 16:23 | 40.13035 | -8.71606 | 35248 ft | 405 kts | 227° |
| 2026-04-15 16:23 | 40.08903 | -8.76626 | 35243 ft | 405 kts | 227° |
| 2026-04-15 16:24 | 40.04761 | -8.81635 | 35244 ft | 406 kts | 227° |
| 2026-04-15 16:24 | 40.00615 | -8.86651 | 35249 ft | 407 kts | 227° |
| 2026-04-15 16:25 | 39.96489 | -8.91636 | 35254 ft | 407 kts | 227° |
| 2026-04-15 16:25 | 39.92322 | -8.96658 | 35249 ft | 408 kts | 227° |
| 2026-04-15 16:26 | 39.88148 | -9.01675 | 35250 ft | 408 kts | 227° |
| 2026-04-15 16:26 | 39.83968 | -9.06685 | 35252 ft | 409 kts | 227° |
| 2026-04-15 16:27 | 39.79783 | -9.11706 | 35253 ft | 409 kts | 227° |
| 2026-04-15 16:27 | 39.75589 | -9.16744 | 35249 ft | 411 kts | 227° |
| 2026-04-15 16:28 | 39.71379 | -9.21808 | 35253 ft | 413 kts | 227° |
| 2026-04-15 16:28 | 39.67146 | -9.26859 | 35259 ft | 413 kts | 226° |
| 2026-04-15 16:29 | 39.62946 | -9.31873 | 35259 ft | 413 kts | 227° |
| 2026-04-15 16:29 | 39.58719 | -9.36944 | 35260 ft | 414 kts | 226° |
| 2026-04-15 16:30 | 39.54469 | -9.41979 | 35269 ft | 414 kts | 226° |
| 2026-04-15 16:30 | 39.50208 | -9.47001 | 35276 ft | 414 kts | 226° |
| 2026-04-15 16:31 | 39.45948 | -9.52028 | 35272 ft | 414 kts | 226° |
| 2026-04-15 16:31 | 39.41693 | -9.57050 | 35271 ft | 415 kts | 226° |
| 2026-04-15 16:32 | 39.37427 | -9.62070 | 35267 ft | 415 kts | 226° |
| 2026-04-15 16:32 | 39.33145 | -9.67096 | 35275 ft | 416 kts | 226° |
| 2026-04-15 16:33 | 39.28871 | -9.72122 | 35268 ft | 416 kts | 226° |
| 2026-04-15 16:33 | 39.24598 | -9.77141 | 35267 ft | 417 kts | 226° |
| 2026-04-15 16:34 | 39.20302 | -9.82165 | 35270 ft | 417 kts | 226° |
| 2026-04-15 16:34 | 39.15999 | -9.87183 | 35274 ft | 417 kts | 225° |
| 2026-04-15 16:35 | 39.11693 | -9.92193 | 35270 ft | 417 kts | 225° |
| 2026-04-15 16:35 | 39.07381 | -9.97219 | 35276 ft | 418 kts | 225° |
| 2026-04-15 16:36 | 39.03070 | -10.02239 | 35274 ft | 418 kts | 225° |
| 2026-04-15 16:36 | 38.98752 | -10.07248 | 35275 ft | 418 kts | 225° |
| 2026-04-15 16:37 | 38.94424 | -10.12252 | 35269 ft | 418 kts | 225° |
| 2026-04-15 16:37 | 38.90096 | -10.17253 | 35272 ft | 419 kts | 225° |
| 2026-04-15 16:38 | 38.85756 | -10.22253 | 35268 ft | 419 kts | 225° |
| 2026-04-15 16:38 | 38.81417 | -10.27245 | 35273 ft | 420 kts | 225° |
| 2026-04-15 16:39 | 38.77095 | -10.32216 | 35275 ft | 420 kts | 225° |
| 2026-04-15 16:39 | 38.72746 | -10.37210 | 35275 ft | 420 kts | 225° |
| 2026-04-15 16:40 | 38.68386 | -10.42209 | 35280 ft | 421 kts | 225° |
| 2026-04-15 16:40 | 38.64024 | -10.47204 | 35281 ft | 421 kts | 225° |
| 2026-04-15 16:41 | 38.59653 | -10.52200 | 35278 ft | 421 kts | 225° |
| 2026-04-15 16:41 | 38.55282 | -10.57187 | 35279 ft | 421 kts | 225° |
| 2026-04-15 16:42 | 38.50907 | -10.62167 | 35274 ft | 421 kts | 224° |
| 2026-04-15 16:42 | 38.46527 | -10.67140 | 35279 ft | 422 kts | 224° |
| 2026-04-15 16:43 | 38.42140 | -10.72113 | 35274 ft | 422 kts | 224° |
| 2026-04-15 16:43 | 38.37749 | -10.77087 | 35279 ft | 422 kts | 224° |
| 2026-04-15 16:44 | 38.33350 | -10.82057 | 35278 ft | 422 kts | 224° |
| 2026-04-15 16:44 | 38.28955 | -10.87020 | 35280 ft | 422 kts | 224° |
| 2026-04-15 16:45 | 38.24545 | -10.91986 | 35281 ft | 423 kts | 224° |
| 2026-04-15 16:45 | 38.20135 | -10.96937 | 35284 ft | 423 kts | 224° |
| 2026-04-15 16:46 | 38.15719 | -11.01892 | 35286 ft | 423 kts | 224° |
| 2026-04-15 16:46 | 38.11333 | -11.06813 | 35284 ft | 424 kts | 224° |
| 2026-04-15 16:47 | 38.06884 | -11.11802 | 35285 ft | 424 kts | 224° |
| 2026-04-15 16:47 | 38.02482 | -11.16711 | 35287 ft | 424 kts | 224° |
| 2026-04-15 16:48 | 37.98050 | -11.21654 | 35285 ft | 424 kts | 224° |
| 2026-04-15 16:48 | 37.93609 | -11.26601 | 35291 ft | 425 kts | 224° |
| 2026-04-15 16:49 | 37.89162 | -11.31533 | 35292 ft | 425 kts | 224° |
| 2026-04-15 16:49 | 37.84712 | -11.36458 | 35293 ft | 425 kts | 224° |
| 2026-04-15 16:50 | 37.81014 | -11.40570 | 35287 ft | 425 kts | 224° |
| 2026-04-15 16:50 | 37.76575 | -11.45499 | 35287 ft | 425 kts | 223° |
| 2026-04-15 16:51 | 37.72119 | -11.50420 | 35289 ft | 425 kts | 223° |
| 2026-04-15 16:51 | 37.67658 | -11.55324 | 35286 ft | 425 kts | 223° |
| 2026-04-15 16:52 | 37.63200 | -11.60225 | 35288 ft | 425 kts | 223° |
| 2026-04-15 16:52 | 37.58742 | -11.65126 | 35286 ft | 425 kts | 223° |
| 2026-04-15 16:53 | 37.54282 | -11.70023 | 35286 ft | 425 kts | 223° |
| 2026-04-15 16:53 | 37.49819 | -11.74916 | 35285 ft | 424 kts | 223° |
| 2026-04-15 16:54 | 37.45366 | -11.79790 | 35285 ft | 425 kts | 223° |
| 2026-04-15 16:54 | 37.40906 | -11.84667 | 35278 ft | 425 kts | 223° |
| 2026-04-15 16:55 | 37.36436 | -11.89526 | 35281 ft | 425 kts | 223° |
| 2026-04-15 16:55 | 37.31964 | -11.94380 | 35273 ft | 425 kts | 223° |
| 2026-04-15 16:56 | 37.27504 | -11.99238 | 35276 ft | 424 kts | 223° |
| 2026-04-15 16:56 | 37.23038 | -12.04089 | 35274 ft | 424 kts | 223° |
| 2026-04-15 16:57 | 37.18596 | -12.08893 | 35272 ft | 424 kts | 223° |
| 2026-04-15 16:57 | 37.14125 | -12.13731 | 35274 ft | 424 kts | 223° |
| 2026-04-15 16:58 | 37.09649 | -12.18552 | 35267 ft | 424 kts | 223° |
| 2026-04-15 16:58 | 37.05176 | -12.23372 | 35277 ft | 424 kts | 223° |
| 2026-04-15 16:59 | 37.00702 | -12.28202 | 35277 ft | 424 kts | 223° |
| 2026-04-15 16:59 | 36.96224 | -12.33015 | 35279 ft | 425 kts | 222° |
| 2026-04-15 17:00 | 36.91735 | -12.37821 | 35273 ft | 425 kts | 222° |
| 2026-04-15 17:00 | 36.87238 | -12.42635 | 35273 ft | 425 kts | 222° |
| 2026-04-15 17:01 | 36.82747 | -12.47444 | 35276 ft | 425 kts | 222° |
| 2026-04-15 17:01 | 36.78283 | -12.52212 | 35276 ft | 425 kts | 222° |
| 2026-04-15 17:02 | 36.73781 | -12.57004 | 35272 ft | 425 kts | 222° |
| 2026-04-15 17:02 | 36.69275 | -12.61784 | 35273 ft | 425 kts | 222° |
| 2026-04-15 17:03 | 36.64772 | -12.66565 | 35282 ft | 425 kts | 222° |
| 2026-04-15 17:03 | 36.60275 | -12.71350 | 35282 ft | 425 kts | 222° |
| 2026-04-15 17:04 | 36.55765 | -12.76128 | 35278 ft | 425 kts | 222° |
| 2026-04-15 17:04 | 36.51247 | -12.80898 | 35277 ft | 425 kts | 221° |
| 2026-04-15 17:05 | 36.46735 | -12.85653 | 35277 ft | 425 kts | 222° |
| 2026-04-15 17:05 | 36.42259 | -12.90380 | 35275 ft | 425 kts | 222° |
| 2026-04-15 17:06 | 36.37717 | -12.95165 | 35277 ft | 425 kts | 221° |
| 2026-04-15 17:06 | 36.33231 | -12.99863 | 35275 ft | 425 kts | 221° |
| 2026-04-15 17:07 | 36.28719 | -13.04599 | 35275 ft | 425 kts | 221° |
| 2026-04-15 17:07 | 36.24212 | -13.09331 | 35273 ft | 425 kts | 221° |
| 2026-04-15 17:08 | 36.19699 | -13.14059 | 35271 ft | 425 kts | 221° |
| 2026-04-15 17:08 | 36.15176 | -13.18775 | 35269 ft | 425 kts | 221° |
| 2026-04-15 17:09 | 36.10646 | -13.23481 | 35273 ft | 425 kts | 221° |
| 2026-04-15 17:09 | 36.06124 | -13.28193 | 35273 ft | 425 kts | 221° |
| 2026-04-15 17:10 | 36.01594 | -13.32906 | 35282 ft | 425 kts | 221° |
| 2026-04-15 17:10 | 35.97098 | -13.37575 | 35278 ft | 425 kts | 221° |
| 2026-04-15 17:11 | 35.92526 | -13.42308 | 35279 ft | 426 kts | 221° |
| 2026-04-15 17:11 | 35.87983 | -13.46996 | 35279 ft | 426 kts | 221° |
| 2026-04-15 17:12 | 35.81188 | -13.54001 | 35284 ft | 426 kts | 221° |
| 2026-04-15 17:12 | 35.76638 | -13.58686 | 35280 ft | 426 kts | 221° |
| 2026-04-15 17:13 | 35.72096 | -13.63370 | 35279 ft | 426 kts | 221° |
| 2026-04-15 17:13 | 35.67555 | -13.68052 | 35278 ft | 426 kts | 221° |
| 2026-04-15 17:14 | 35.63011 | -13.72722 | 35280 ft | 426 kts | 221° |
| 2026-04-15 17:14 | 35.58453 | -13.77386 | 35285 ft | 426 kts | 221° |
| 2026-04-15 17:15 | 35.53907 | -13.82015 | 35287 ft | 426 kts | 221° |
| 2026-04-15 17:15 | 35.49318 | -13.86687 | 35284 ft | 426 kts | 221° |
| 2026-04-15 17:16 | 35.44763 | -13.91342 | 35284 ft | 426 kts | 221° |
| 2026-04-15 17:16 | 35.40200 | -13.96002 | 35286 ft | 426 kts | 221° |
| 2026-04-15 17:17 | 35.35664 | -14.00614 | 35285 ft | 426 kts | 220° |
| 2026-04-15 17:17 | 35.31097 | -14.05244 | 35285 ft | 426 kts | 220° |
| 2026-04-15 17:18 | 35.26524 | -14.09865 | 35281 ft | 426 kts | 220° |
| 2026-04-15 17:18 | 35.21948 | -14.14485 | 35284 ft | 426 kts | 220° |
| 2026-04-15 17:19 | 35.17384 | -14.19103 | 35280 ft | 426 kts | 220° |
| 2026-04-15 17:19 | 35.12808 | -14.23731 | 35279 ft | 426 kts | 220° |
| 2026-04-15 17:20 | 35.08230 | -14.28335 | 35279 ft | 426 kts | 220° |
| 2026-04-15 17:20 | 35.03649 | -14.32940 | 35278 ft | 426 kts | 220° |
| 2026-04-15 17:21 | 34.99071 | -14.37540 | 35274 ft | 426 kts | 220° |
| 2026-04-15 17:21 | 34.94484 | -14.42136 | 35273 ft | 426 kts | 220° |
| 2026-04-15 17:22 | 34.89897 | -14.46713 | 35270 ft | 426 kts | 220° |
| 2026-04-15 17:22 | 34.85310 | -14.51303 | 35270 ft | 427 kts | 220° |
| 2026-04-15 17:23 | 34.80726 | -14.55885 | 35269 ft | 427 kts | 220° |
| 2026-04-15 17:23 | 34.76130 | -14.60460 | 35269 ft | 427 kts | 220° |
| 2026-04-15 17:24 | 34.71534 | -14.65035 | 35268 ft | 427 kts | 220° |
| 2026-04-15 17:24 | 34.66969 | -14.69573 | 35269 ft | 427 kts | 220° |
| 2026-04-15 17:25 | 34.62365 | -14.74138 | 35267 ft | 427 kts | 219° |
| 2026-04-15 17:25 | 34.57752 | -14.78709 | 35267 ft | 428 kts | 219° |
| 2026-04-15 17:26 | 34.53137 | -14.83271 | 35267 ft | 428 kts | 219° |
| 2026-04-15 17:26 | 34.48501 | -14.87854 | 35281 ft | 435 kts | 219° |
| 2026-04-15 17:27 | 34.43738 | -14.92551 | 35278 ft | 448 kts | 219° |
| 2026-04-15 17:27 | 34.38852 | -14.97352 | 35273 ft | 454 kts | 218° |
| 2026-04-15 17:28 | 34.33947 | -15.02182 | 35276 ft | 453 kts | 218° |
| 2026-04-15 17:28 | 34.29105 | -15.06948 | 35273 ft | 451 kts | 218° |
| 2026-04-15 17:29 | 34.24227 | -15.11730 | 35274 ft | 451 kts | 218° |
| 2026-04-15 17:29 | 34.19348 | -15.16502 | 35273 ft | 452 kts | 218° |
| 2026-04-15 17:30 | 34.14457 | -15.21269 | 35275 ft | 452 kts | 218° |
| 2026-04-15 17:30 | 34.09563 | -15.26047 | 35273 ft | 452 kts | 218° |
| 2026-04-15 17:31 | 34.04668 | -15.30819 | 35272 ft | 453 kts | 218° |
| 2026-04-15 17:31 | 33.99766 | -15.35604 | 34716 ft | 453 kts | 218° |
| 2026-04-15 17:32 | 33.97320 | -15.37983 | 33427 ft | 451 kts | 218° |
| 2026-04-15 17:32 | 33.94863 | -15.40367 | 31854 ft | 455 kts | 218° |
| 2026-04-15 17:32 | 33.92392 | -15.42760 | 30815 ft | 460 kts | 218° |
| 2026-04-15 17:32 | 33.89887 | -15.45188 | 30536 ft | 461 kts | 218° |
| 2026-04-15 17:33 | 33.87375 | -15.47626 | 29962 ft | 467 kts | 218° |
| 2026-04-15 17:33 | 33.84827 | -15.50095 | 29357 ft | 473 kts | 218° |
| 2026-04-15 17:33 | 33.82253 | -15.52583 | 28750 ft | 475 kts | 218° |
| 2026-04-15 17:33 | 33.80546 | -15.54230 | 28353 ft | 476 kts | 218° |
| 2026-04-15 17:34 | 33.77951 | -15.56733 | 27747 ft | 478 kts | 218° |
| 2026-04-15 17:34 | 33.75358 | -15.59233 | 27157 ft | 480 kts | 218° |
| 2026-04-15 17:34 | 33.71891 | -15.62569 | 26348 ft | 482 kts | 218° |
| 2026-04-15 17:34 | 33.69287 | -15.65077 | 25769 ft | 479 kts | 218° |
| 2026-04-15 17:35 | 33.66699 | -15.67573 | 25218 ft | 475 kts | 218° |
| 2026-04-15 17:35 | 33.64132 | -15.70045 | 24668 ft | 471 kts | 218° |
| 2026-04-15 17:35 | 33.62408 | -15.71704 | 24295 ft | 469 kts | 218° |
| 2026-04-15 17:35 | 33.59867 | -15.74145 | 23713 ft | 465 kts | 219° |
| 2026-04-15 17:36 | 33.57380 | -15.76532 | 23125 ft | 462 kts | 218° |
| 2026-04-15 17:36 | 33.54950 | -15.79021 | 22561 ft | 458 kts | 224° |
| 2026-04-15 17:36 | 33.52649 | -15.81725 | 21982 ft | 455 kts | 224° |
| 2026-04-15 17:36 | 33.50399 | -15.84369 | 21411 ft | 452 kts | 224° |
| 2026-04-15 17:37 | 33.48163 | -15.86989 | 20839 ft | 449 kts | 224° |
| 2026-04-15 17:37 | 33.45962 | -15.89561 | 20188 ft | 446 kts | 224° |
| 2026-04-15 17:37 | 33.43740 | -15.92157 | 19451 ft | 444 kts | 224° |
| 2026-04-15 17:37 | 33.41515 | -15.94755 | 18898 ft | 439 kts | 224° |
| 2026-04-15 17:38 | 33.39360 | -15.97273 | 18326 ft | 436 kts | 224° |
| 2026-04-15 17:38 | 33.37199 | -15.99798 | 17763 ft | 434 kts | 223° |
| 2026-04-15 17:38 | 33.35047 | -16.02313 | 17219 ft | 431 kts | 223° |
| 2026-04-15 17:38 | 33.32908 | -16.04811 | 16680 ft | 428 kts | 223° |
| 2026-04-15 17:39 | 33.30779 | -16.07295 | 16158 ft | 426 kts | 223° |
| 2026-04-15 17:39 | 33.28667 | -16.09758 | 15635 ft | 423 kts | 223° |
| 2026-04-15 17:39 | 33.26559 | -16.12210 | 15114 ft | 421 kts | 223° |
| 2026-04-15 17:39 | 33.24461 | -16.14648 | 14596 ft | 423 kts | 223° |
| 2026-04-15 17:40 | 33.22329 | -16.17122 | 14062 ft | 427 kts | 222° |
| 2026-04-15 17:40 | 33.20235 | -16.19553 | 13826 ft | 411 kts | 223° |
| 2026-04-15 17:40 | 33.18248 | -16.21860 | 13677 ft | 383 kts | 223° |
| 2026-04-15 17:40 | 33.16400 | -16.24010 | 13240 ft | 363 kts | 223° |
| 2026-04-15 17:41 | 33.14630 | -16.26061 | 12465 ft | 356 kts | 223° |
| 2026-04-15 17:41 | 33.12838 | -16.28133 | 11641 ft | 351 kts | 222° |
| 2026-04-15 17:41 | 33.11124 | -16.30114 | 11174 ft | 337 kts | 222° |
| 2026-04-15 17:41 | 33.09486 | -16.32010 | 10732 ft | 325 kts | 222° |
| 2026-04-15 17:42 | 33.07886 | -16.33860 | 10305 ft | 318 kts | 222° |
| 2026-04-15 17:42 | 33.06315 | -16.35670 | 10118 ft | 310 kts | 222° |
| 2026-04-15 17:42 | 33.04777 | -16.37442 | 10003 ft | 305 kts | 222° |
| 2026-04-15 17:42 | 33.03248 | -16.39207 | 9703 ft | 308 kts | 222° |
| 2026-04-15 17:43 | 33.01718 | -16.40974 | 9351 ft | 305 kts | 222° |
| 2026-04-15 17:43 | 33.00180 | -16.42749 | 8869 ft | 303 kts | 222° |
| 2026-04-15 17:43 | 32.98678 | -16.44481 | 8263 ft | 299 kts | 222° |
| 2026-04-15 17:43 | 32.97193 | -16.46189 | 7748 ft | 294 kts | 222° |
| 2026-04-15 17:44 | 32.95726 | -16.47879 | 7282 ft | 292 kts | 222° |
| 2026-04-15 17:44 | 32.94268 | -16.49561 | 6824 ft | 293 kts | 222° |
| 2026-04-15 17:44 | 32.92799 | -16.51251 | 6407 ft | 292 kts | 222° |
| 2026-04-15 17:44 | 32.91313 | -16.52901 | 5991 ft | 291 kts | 220° |
| 2026-04-15 17:45 | 32.89806 | -16.54512 | 5541 ft | 291 kts | 219° |
| 2026-04-15 17:45 | 32.88331 | -16.56069 | 5345 ft | 282 kts | 219° |
| 2026-04-15 17:45 | 32.86881 | -16.57599 | 5193 ft | 270 kts | 219° |
| 2026-04-15 17:45 | 32.85491 | -16.59055 | 4969 ft | 262 kts | 216° |
| 2026-04-15 17:46 | 32.84018 | -16.60299 | 4510 ft | 268 kts | 212° |
| 2026-04-15 17:46 | 32.82480 | -16.61565 | 4072 ft | 268 kts | 213° |
| 2026-04-15 17:46 | 32.80985 | -16.62799 | 4011 ft | 253 kts | 213° |
| 2026-04-15 17:46 | 32.79589 | -16.63957 | 4011 ft | 240 kts | 213° |
| 2026-04-15 17:47 | 32.78219 | -16.65090 | 3933 ft | 241 kts | 213° |
| 2026-04-15 17:47 | 32.76852 | -16.66223 | 3564 ft | 238 kts | 213° |
| 2026-04-15 17:47 | 32.75503 | -16.67340 | 3172 ft | 235 kts | 214° |
| 2026-04-15 17:47 | 32.74169 | -16.68445 | 2801 ft | 233 kts | 214° |
| 2026-04-15 17:48 | 32.72841 | -16.69542 | 2405 ft | 231 kts | 214° |
| 2026-04-15 17:48 | 32.71530 | -16.70622 | 2043 ft | 227 kts | 214° |
| 2026-04-15 17:48 | 32.70265 | -16.71660 | 1726 ft | 218 kts | 214° |
| 2026-04-15 17:48 | 32.69054 | -16.72637 | 1426 ft | 202 kts | 213° |
| 2026-04-15 17:49 | 32.67937 | -16.73548 | 1274 ft | 187 kts | 217° |
| 2026-04-15 17:49 | 32.66952 | -16.74462 | 1169 ft | 173 kts | 220° |
| 2026-04-15 17:49 | 32.66300 | -16.75111 | 1106 ft | 169 kts | 221° |